• Join FlightAware (Why Join?)
  • Login
  • US Flag 
12:26AM EDT


 

Airport Tracker/Info


-or-


 

Live Flight TrackerFlight Track Log ✈ ASA125 ✈ 08-Jun-2013 ✈ KSEA - PAFA / FAI

Flight Track Log - Related Links

Times and Time Zones

All times are in EDT time to prevent confusion due to time zone crossing. See the ASA125 flight status page for this flight to view local times or setup timezone preferences in your user account.

Time Position Orientation Groundspeed Altitude Reporting Facility
EDT Latitude Longitude Course Direction KTS MPH feet Rate Location/Type
03:27AM 47.4681 -122.3086 North 176 203 1,500  Level Seattle Center
03:27AM 47.4992 -122.3081 North 188 216 2,400 2,160 Climbing Seattle Center
03:28AM 47.5639 -122.3181 354° North 247 284 5,000 2,400 Climbing Seattle Center
03:29AM 47.5917 -122.3469 325° Northwest 239 275 6,200 2,460 Climbing Seattle Center
03:30AM 47.6311 -122.4319 305° West 255 293 8,900 2,280 Climbing Seattle Center
03:31AM 47.6892 -122.4875 327° Northwest 285 328 10,800 1,440 Climbing Seattle Center
03:32AM 47.7867 -122.4778 North 354 407 11,900 1,380 Climbing Seattle Center
03:33AM 47.8903 -122.4819 358° North 394 453 13,700 2,100 Climbing Seattle Center
03:34AM 47.9361 -122.6000 300° West 352 405 16,100 2,100 Climbing Seattle Center
03:35AM 47.9533 -122.7400 280° West 349 402 18,000 1,800 Climbing Seattle Center
03:36AM 47.9711 -122.8825 281° West 355 409 19,800 1,860 Climbing Seattle Center
03:37AM 47.9886 -123.0275 280° West 360 414 21,800 1,620 Climbing Seattle Center
03:38AM 48.0086 -123.1736 282° West 362 417 23,100 1,200 Climbing Seattle Center
03:39AM 48.0733 -123.2989 308° West 408 470 24,300 1,380 Climbing Seattle Center
03:40AM 48.1500 -123.3667 329° Northwest 420 483 25,500 1,680 Climbing Vancouver Center
03:41AM 48.2333 -123.4500 326° Northwest 420 483 27,200 1,500 Climbing Vancouver Center
03:42AM 48.3333 -123.5500 326° Northwest 420 483 28,500 1,380 Climbing Vancouver Center
03:43AM 48.4333 -123.6167 336° Northwest 410 472 30,000 720 Climbing Vancouver Center
03:44AM 48.5333 -123.7167 326° Northwest 400 460 30,000  Level Vancouver Center
03:45AM 48.6333 -123.8000 331° Northwest 400 460 30,000  Level Vancouver Center
03:46AM 48.7167 -123.9000 322° Northwest 400 460 30,000  Level Vancouver Center
03:47AM 48.8167 -123.9833 331° Northwest 400 460 30,000  Level Vancouver Center
03:48AM 48.9167 -124.0833 327° Northwest 400 460 30,000  Level Vancouver Center
03:49AM 49.0000 -124.1500 332° Northwest 400 460 30,000  Level Vancouver Center
03:50AM 49.1000 -124.2500 327° Northwest 400 460 30,000  Level Vancouver Center
03:51AM 49.2000 -124.3333 331° Northwest 400 460 30,000  Level Vancouver Center
03:52AM 49.2833 -124.4333 322° Northwest 390 449 30,000  Level Vancouver Center
03:53AM 49.3833 -124.5167 332° Northwest 390 449 30,000  Level Vancouver Center
03:54AM 49.4667 -124.6000 327° Northwest 390 449 30,000  Level Vancouver Center
03:55AM 49.5667 -124.7000 327° Northwest 390 449 30,000  Level Vancouver Center
03:56AM 49.6500 -124.7833 327° Northwest 390 449 30,000  Level Vancouver Center
03:57AM 49.7500 -124.8667 332° Northwest 390 449 30,000  Level Vancouver Center
03:58AM 49.8333 -124.9667 322° Northwest 390 449 30,000  Level Vancouver Center
03:59AM 49.9333 -125.0500 332° Northwest 390 449 30,000  Level Vancouver Center
04:00AM 50.0333 -125.1167 337° Northwest 390 449 30,000  Level Vancouver Center
04:01AM 50.1167 -125.2333 318° Northwest 390 449 30,000  Level Vancouver Center
04:02AM 50.2167 -125.3167 332° Northwest 400 460 30,000  Level Vancouver Center
04:03AM 50.3167 -125.4167 327° Northwest 390 449 30,000  Level Vancouver Center
04:04AM 50.4000 -125.5000 327° Northwest 390 449 30,000  Level Vancouver Center
04:05AM 50.5000 -125.5833 332° Northwest 390 449 30,000  Level Vancouver Center
04:06AM 50.5833 -125.6833 323° Northwest 390 449 30,000  Level Vancouver Center
04:07AM 50.6667 -125.7667 328° Northwest 390 449 30,000  Level Vancouver Center
04:08AM 50.7500 -125.8500 328° Northwest 390 449 30,000  Level Vancouver Center
04:09AM 50.8500 -125.9667 324° Northwest 390 449 30,000  Level Vancouver Center
04:10AM 50.9500 -126.0500 332° Northwest 380 437 30,000  Level Vancouver Center
04:11AM 51.0333 -126.1333 328° Northwest 380 437 30,000  Level Vancouver Center
04:12AM 51.1167 -126.2500 319° Northwest 380 437 30,000  Level Vancouver Center
04:13AM 51.2167 -126.3333 332° Northwest 380 437 30,000  Level Vancouver Center
04:14AM 51.3167 -126.4167 332° Northwest 390 449 30,000  Level Vancouver Center
04:15AM 51.4000 -126.5333 319° Northwest 390 449 30,000  Level Vancouver Center
04:16AM 51.5000 -126.6167 333° Northwest 400 460 30,000  Level Vancouver Center
04:17AM 51.5667 -126.7333 313° West 400 460 30,000  Level Vancouver Center
04:18AM 51.6667 -126.8167 333° Northwest 400 460 30,000  Level Vancouver Center
04:19AM 51.7667 -126.9333 324° Northwest 410 472 30,000  Level Vancouver Center
04:20AM 51.8667 -127.0167 333° Northwest 410 472 30,000  Level Vancouver Center
04:21AM 51.9667 -127.1333 324° Northwest 410 472 30,000  Level Vancouver Center
04:22AM 52.0667 -127.2167 333° Northwest 420 483 30,000  Level Vancouver Center
04:23AM 52.1500 -127.3333 319° Northwest 420 483 30,000  Level Vancouver Center
04:24AM 52.2500 -127.4333 329° Northwest 420 483 30,000  Level Vancouver Center
04:25AM 52.3500 -127.5500 325° Northwest 420 483 30,000  Level Vancouver Center
04:26AM 52.4500 -127.6667 325° Northwest 420 483 30,000  Level Vancouver Center
04:27AM 52.5500 -127.7500 333° Northwest 420 483 30,000  Level Vancouver Center
04:28AM 52.6500 -127.8667 325° Northwest 420 483 30,000  Level Vancouver Center
04:29AM 52.7333 -127.9833 320° Northwest 420 483 30,000  Level Vancouver Center
04:30AM 52.8333 -128.0833 329° Northwest 420 483 30,000  Level Vancouver Center
04:31AM 52.9333 -128.2000 325° Northwest 420 483 30,000  Level Vancouver Center
04:32AM 53.0333 -128.3000 329° Northwest 430 495 30,000  Level Vancouver Center
04:33AM 53.1167 -128.4167 320° Northwest 420 483 30,000  Level Vancouver Center
04:34AM 53.2167 -128.5333 325° Northwest 420 483 30,000  Level Vancouver Center
04:35AM 53.3167 -128.6667 321° Northwest 430 495 30,000  Level Vancouver Center
04:36AM 53.4167 -128.7500 334° Northwest 430 495 30,000  Level Vancouver Center
04:37AM 53.5000 -128.8833 316° Northwest 430 495 30,000  Level Vancouver Center
04:38AM 53.6000 -129.0000 325° Northwest 430 495 30,000  Level Vancouver Center
04:39AM 53.7167 -129.1333 326° Northwest 430 495 30,000  Level Vancouver Center
04:40AM 53.8167 -129.2333 329° Northwest 430 495 30,000  Level Vancouver Center
04:41AM 53.9000 -129.3500 321° Northwest 430 495 30,000  Level Vancouver Center
04:42AM 54.0000 -129.4833 322° Northwest 440 506 30,000  Level Vancouver Center
04:43AM 54.1000 -129.5833 330° Northwest 440 506 30,000  Level Vancouver Center
04:44AM 54.1833 -129.7000 321° Northwest 430 495 30,000  Level Vancouver Center
04:45AM 54.2833 -129.8333 322° Northwest 430 495 30,000  Level Vancouver Center
04:46AM 54.4000 -129.9667 326° Northwest 430 495 30,000  Level Vancouver Center
04:47AM 54.4667 -130.0667 319° Northwest 430 495 30,000  Level Vancouver Center
04:48AM 54.5833 -130.2000 326° Northwest 420 483 30,000  Level Vancouver Center
04:49AM 54.6833 -130.3000 330° Northwest 420 483 30,000  Level Vancouver Center
04:50AM 54.7667 -130.4167 321° Northwest 430 495 30,000  Level Vancouver Center
04:51AM 54.8667 -130.5500 323° Northwest 420 483 30,000  Level Vancouver Center
04:52AM 54.9500 -130.6833 317° Northwest 430 495 30,000  Level Vancouver Center
04:53AM 55.0500 -130.7833 330° Northwest 420 483 30,000  Level Vancouver Center
04:54AM 55.1500 -130.8833 330° Northwest 430 495 30,000  Level Anchorage Center
04:55AM 55.2500 -131.0167 323° Northwest 430 495 30,000  Level Anchorage Center
04:56AM 55.3333 -131.1333 321° Northwest 440 506 30,000  Level Anchorage Center
04:57AM 55.4333 -131.2667 323° Northwest 430 495 30,000  Level Anchorage Center
04:58AM 55.5333 -131.3833 327° Northwest 430 495 30,000  Level Anchorage Center
04:59AM 55.6333 -131.5167 323° Northwest 430 495 30,000  Level Anchorage Center
05:00AM 55.7167 -131.6500 318° Northwest 430 495 30,000  Level Anchorage Center
05:01AM 55.8167 -131.7667 327° Northwest 420 483 30,000  Level Anchorage Center
05:02AM 55.9000 -131.9000 318° Northwest 430 495 30,000  Level Anchorage Center
05:03AM 56.0000 -132.0000 331° Northwest 430 495 30,000  Level Anchorage Center
05:04AM 56.0833 -132.1333 318° Northwest 430 495 30,000  Level Anchorage Center
05:05AM 56.1833 -132.2667 323° Northwest 420 483 30,000  Level Anchorage Center
05:06AM 56.2667 -132.4000 318° Northwest 430 495 30,000  Level Anchorage Center
05:07AM 56.3667 -132.5333 324° Northwest 430 495 30,000  Level Anchorage Center
05:08AM 56.4667 -132.6667 324° Northwest 430 495 30,000  Level Anchorage Center
05:09AM 56.5500 -132.8000 319° Northwest 430 495 30,000  Level Anchorage Center
05:10AM 56.6500 -132.9333 324° Northwest 440 506 30,000  Level Anchorage Center
05:11AM 56.7667 -133.1000 322° Northwest 440 506 30,000  Level Anchorage Center
05:12AM 56.8500 -133.2333 319° Northwest 440 506 30,000  Level Anchorage Center
05:13AM 56.9500 -133.3833 321° Northwest 440 506 30,000  Level Anchorage Center
05:14AM 57.0500 -133.5167 324° Northwest 440 506 30,000  Level Anchorage Center
05:15AM 57.1333 -133.6500 319° Northwest 440 506 30,000  Level Anchorage Center
05:16AM 57.2333 -133.8000 321° Northwest 440 506 30,000  Level Anchorage Center
05:17AM 57.3333 -133.9333 324° Northwest 440 506 30,000  Level Anchorage Center
05:18AM 57.4167 -134.0833 316° Northwest 450 518 30,000  Level Anchorage Center
05:19AM 57.5167 -134.2333 321° Northwest 440 506 30,000  Level Anchorage Center
05:20AM 57.6167 -134.3833 321° Northwest 450 518 30,000  Level Anchorage Center
05:21AM 57.7167 -134.5167 325° Northwest 440 506 30,000  Level Anchorage Center
05:22AM 57.8000 -134.6667 316° Northwest 450 518 30,000  Level Anchorage Center
05:23AM 57.9000 -134.8167 321° Northwest 440 506 30,000  Level Anchorage Center
05:24AM 57.9833 -134.9667 316° Northwest 440 506 30,000  Level Anchorage Center
05:25AM 58.0833 -135.1167 322° Northwest 440 506 30,000  Level Anchorage Center
05:26AM 58.1833 -135.2500 325° Northwest 440 506 30,000  Level Anchorage Center
05:27AM 58.2833 -135.3667 328° Northwest 440 506 30,000  Level Anchorage Center
05:28AM 58.3833 -135.4833 329° Northwest 430 495 30,000  Level Anchorage Center
05:29AM 58.4833 -135.6000 329° Northwest 430 495 30,000  Level Anchorage Center
05:30AM 58.6000 -135.7000 336° Northwest 430 495 30,000  Level Anchorage Center
05:31AM 58.7000 -135.8167 329° Northwest 440 506 30,000  Level Anchorage Center
05:32AM 58.8000 -135.9333 329° Northwest 430 495 30,000  Level Anchorage Center
05:33AM 58.9000 -136.0500 329° Northwest 440 506 30,000  Level Anchorage Center
05:34AM 59.0167 -136.1667 333° Northwest 440 506 30,000  Level Anchorage Center
05:35AM 59.1167 -136.2833 329° Northwest 440 506 30,000  Level Anchorage Center
05:36AM 59.2333 -136.4000 333° Northwest 430 495 30,000  Level Anchorage Center
05:37AM 59.3333 -136.5167 329° Northwest 440 506 30,000  Level Anchorage Center
05:38AM 59.4500 -136.6667 327° Northwest 440 506 30,000  Level Anchorage Center
05:39AM 59.5667 -136.7833 333° Northwest 440 506 30,000  Level Anchorage Center
05:40AM 59.6667 -136.9167 326° Northwest 440 506 30,000  Level Anchorage Center
05:41AM 59.7667 -137.0333 330° Northwest 440 506 30,000  Level Anchorage Center
05:42AM 59.8833 -137.1667 330° Northwest 440 506 30,000  Level Anchorage Center
05:43AM 59.9833 -137.2833 330° Northwest 450 518 30,000  Level Anchorage Center
05:44AM 60.1000 -137.4167 330° Northwest 440 506 30,000  Level Anchorage Center
05:45AM 60.2000 -137.5500 326° Northwest 440 506 30,000  Level Anchorage Center
05:46AM 60.3000 -137.6667 330° Northwest 440 506 30,000  Level Anchorage Center
05:47AM 60.4000 -137.8000 327° Northwest 440 506 30,000  Level Anchorage Center
05:48AM 60.5167 -137.9333 331° Northwest 440 506 30,000  Level Anchorage Center
05:49AM 60.6167 -138.0667 327° Northwest 440 506 30,000  Level Anchorage Center
05:50AM 60.7167 -138.1833 330° Northwest 430 495 30,000  Level Anchorage Center
05:51AM 60.8167 -138.3167 327° Northwest 440 506 30,000  Level Anchorage Center
05:52AM 60.9333 -138.4500 331° Northwest 430 495 30,000  Level Anchorage Center
05:53AM 61.0333 -138.5833 327° Northwest 440 506 30,000  Level Anchorage Center
05:54AM 61.1333 -138.7167 327° Northwest 440 506 30,000  Level Anchorage Center
05:55AM 61.2333 -138.8500 327° Northwest 430 495 30,000  Level Anchorage Center
05:57AM 61.4667 -139.2000 324° Northwest 420 483 30,000  Level Anchorage Center
05:58AM 61.5500 -139.3667 316° Northwest 420 483 30,000  Level Anchorage Center
06:00AM 61.6544 -139.5586 319° Northwest  Level FlightAware Approximate
06:07AM 62.2499 -140.6886 319° Northwest  Level FlightAware Approximate
06:08AM 62.3342 -140.8537 318° Northwest  Level FlightAware Approximate
06:09AM 62.4201 -141.0171 322° Northwest  Level FlightAware Approximate
06:10AM 62.5100 -141.1688 322° Northwest  Level FlightAware Approximate
06:11AM 62.5997 -141.3215 322° Northwest  Level FlightAware Approximate
06:12AM 62.6892 -141.4750 322° Northwest  Level FlightAware Approximate
06:13AM 62.7786 -141.6295 322° Northwest  Level FlightAware Approximate
06:13AM 62.8500 -141.7500 307° West 430 495 30,000  Level Anchorage Center
06:14AM 62.8678 -141.7850 322° Northwest  Level FlightAware Approximate
06:14AM 62.9500 -141.9167 323° Northwest 440 506 30,000  Level Anchorage Center
06:15AM 62.9518 -141.9523 308° West  Level FlightAware Approximate
06:15AM 63.0167 -142.1167 306° West 420 483 30,000  Level Anchorage Center
06:16AM 63.0216 -142.1508 308° West  Level FlightAware Approximate
06:16AM 63.0833 -142.3167 306° West 420 483 30,000  Level Anchorage Center
06:17AM 63.0910 -142.3503 308° West  Level FlightAware Approximate
06:17AM 63.1500 -142.5333 304° West 420 483 30,000  Level Anchorage Center
06:18AM 63.1602 -142.5507 307° West  Level FlightAware Approximate
06:18AM 63.2333 -142.7333 313° West 420 483 30,000  Level Anchorage Center
06:19AM 63.3000 -142.9500 304° West 420 483 30,000  Level Anchorage Center
06:20AM 63.3667 -143.1500 307° West 420 483 30,000  Level Anchorage Center
06:21AM 63.4333 -143.3667 305° West 420 483 30,000  Level Anchorage Center
06:22AM 63.5000 -143.5833 305° West 420 483 30,000  Level Anchorage Center
06:23AM 63.5667 -143.7833 307° West 420 483 30,000  Level Anchorage Center
06:24AM 63.6333 -144.0000 305° West 420 483 30,000  Level Anchorage Center
06:25AM 63.7000 -144.2333 303° West 420 483 30,000  Level Anchorage Center
06:26AM 63.7667 -144.4500 305° West 420 483 30,000  Level Anchorage Center
06:27AM 63.8333 -144.6500 307° West 420 483 30,000  Level Anchorage Center
06:28AM 63.9167 -144.9167 305° West 420 483 30,000  Level Anchorage Center
06:29AM 63.9833 -145.1500 303° West 420 483 30,000  Level Anchorage Center
06:30AM 64.0500 -145.3667 305° West 420 483 30,000 -120 Level Anchorage Center
06:31AM 64.1167 -145.6000 303° West 420 483 29,800 -600 Descending Anchorage Center
06:32AM 64.1833 -145.8000 307° West 420 483 28,800 -1,920 Descending Anchorage Center
06:33AM 64.2500 -146.0500 302° West 420 483 26,000 -2,760 Descending Anchorage Center
06:35AM 64.3528 -146.3883 303° West  Level FlightAware Approximate
06:42AM 64.5933 -147.9617 12° North  Level FlightAware Approximate
06:43AM 64.7033 -147.9059 18° North  Level FlightAware Approximate
06:44AM 64.8000 -147.8500 12° North  Level FlightAware Approximate
06:45AM 64.8151 -147.8564 12° North  Level Estimated
06:46AM 64.8151 -147.8564 12° North  Level Estimated
06:47AM 64.8151 -147.8564 12° North  Level Estimated
06:48AM 64.8151 -147.8564 12° North  Level Estimated
06:49AM 64.8151 -147.8564 12° North  Level Estimated
06:50AM 64.8151 -147.8564 12° North  Level Estimated
06:51AM 64.8151 -147.8564 12° North  Level Estimated
06:52AM 64.8151 -147.8564 12° North  Level Estimated
06:53AM 64.8151 -147.8564 12° North  Level Estimated
06:54AM 64.8151 -147.8564 12° North  Level Estimated
06:55AM 64.8151 -147.8564 12° North  Level Estimated
06:56AM 64.8151 -147.8564 12° North  Level Estimated
06:57AM 64.8151 -147.8564 12° North  Level Estimated